Terminal Aerodrome Forecast
Issued by NWS Lake Charles, LA

Home | Current Version | Previous Version | Text Only | Print | Product List | Glossary On
Versions: 1 2 3 4 5 6 7 8 9 10 11 12 13 14 15 16 17 18 19 20 21 22 23 24
898
FTUS44 KLCH 161724
TAFBPT
TAF
KBPT 161724Z 1618/1718 16015G20KT P6SM BKN015
      TEMPO 1618/1622 SCT015 BKN025
     FM170000 15012KT P6SM BKN015
     FM170400 15008KT 4SM BR VCSH OVC006
     FM171500 16010KT 6SM BR VCSH OVC012=

USA.gov is the U.S. government's official web portal to all federal, state and local government web resources and services.